createdAt,value
2023-04-21T00:01:49.001Z,98249.06
2023-04-21T00:04:17.944Z,98234.41
2023-04-21T00:06:46.211Z,98244.59
2023-04-21T00:09:14.251Z,98249.81
2023-04-21T00:11:42.427Z,98252.47
2023-04-21T00:14:10.469Z,98251.25
2023-04-21T00:16:38.729Z,98242.09
2023-04-21T00:19:08.603Z,98244.44
2023-04-21T00:21:36.983Z,98237.94
2023-04-21T00:24:05.470Z,98235.66
2023-04-21T00:26:33.521Z,98236.25
2023-04-21T00:29:01.608Z,98234.59
2023-04-21T00:31:31.617Z,98233.63
2023-04-21T00:33:59.662Z,98229.94
2023-04-21T00:36:29.072Z,98232.88
2023-04-21T00:38:57.094Z,98232.09
2023-04-21T00:41:25.129Z,98221.25
2023-04-21T00:44:02.595Z,98228.91
2023-04-21T00:46:33.309Z,98232.81
2023-04-21T00:49:04.195Z,98230.97
2023-04-21T00:51:34.461Z,98233.50
2023-04-21T00:54:03.511Z,98229.66
2023-04-21T00:56:32.393Z,98233.53
2023-04-21T00:59:02.540Z,98223.38
2023-04-21T01:01:30.861Z,98222.44
2023-04-21T01:04:01.666Z,98228.94
2023-04-21T01:06:32.118Z,98237.66
2023-04-21T01:09:01.725Z,98225.44
2023-04-21T01:11:29.737Z,98227.66
2023-04-21T01:13:57.776Z,98226.25
2023-04-21T01:16:26.827Z,98223.50
2023-04-21T01:18:55.302Z,98219.69
2023-04-21T01:21:23.743Z,98220.31
2023-04-21T01:23:53.435Z,98215.50
2023-04-21T01:26:22.648Z,98209.97
2023-04-21T01:28:51.209Z,98208.41
2023-04-21T01:31:21.944Z,98206.91
2023-04-21T01:33:50.011Z,98221.31
2023-04-21T01:36:18.086Z,98214.28
2023-04-21T01:38:48.462Z,98204.44
2023-04-21T01:41:19.536Z,98206.78
2023-04-21T01:43:47.988Z,98203.78
2023-04-21T01:46:16.078Z,98207.69
2023-04-21T01:48:44.176Z,98206.59
2023-04-21T01:51:12.388Z,98208.53
2023-04-21T01:53:42.808Z,98202.69
2023-04-21T01:56:14.612Z,98211.75
2023-04-21T01:58:43.991Z,98222.44
2023-04-21T02:01:14.427Z,98215.34
2023-04-21T02:03:42.620Z,98207.88
2023-04-21T02:06:10.774Z,98206.50
2023-04-21T02:08:41.773Z,98222.25
2023-04-21T02:11:12.134Z,98222.00
2023-04-21T02:13:41.890Z,98225.00
2023-04-21T02:16:13.849Z,98232.03
2023-04-21T02:18:44.606Z,98234.13
2023-04-21T02:21:13.135Z,98234.44
2023-04-21T02:23:41.538Z,98229.66
2023-04-21T02:26:10.075Z,98232.22
2023-04-21T02:28:38.154Z,98240.88
2023-04-21T02:31:06.512Z,98226.16
2023-04-21T02:33:37.005Z,98230.28
2023-04-21T02:36:07.479Z,98220.91
2023-04-21T02:38:35.706Z,98228.53
2023-04-21T02:41:04.122Z,98223.91
2023-04-21T02:43:32.155Z,98231.59
2023-04-21T02:46:00.218Z,98230.91
2023-04-21T02:48:28.352Z,98229.16
2023-04-21T02:50:57.797Z,98228.25
2023-04-21T02:53:25.850Z,98230.44
2023-04-21T02:55:54.383Z,98233.44
2023-04-21T02:58:22.367Z,98231.56
2023-04-21T03:00:50.727Z,98225.63
2023-04-21T03:03:19.079Z,98224.53
2023-04-21T03:05:47.301Z,98224.00
2023-04-21T03:08:16.812Z,98228.69
2023-04-21T03:10:44.820Z,98233.53
2023-04-21T03:13:12.947Z,98222.31
2023-04-21T03:15:40.960Z,98229.09
2023-04-21T03:18:09.102Z,98225.84
2023-04-21T03:20:37.233Z,98225.44
2023-04-21T03:23:05.254Z,98214.41
2023-04-21T03:25:34.964Z,98207.53
2023-04-21T03:28:03.908Z,98200.88
2023-04-21T03:30:32.042Z,98206.59
2023-04-21T03:33:00.332Z,98201.59
2023-04-21T03:35:28.408Z,98194.50
2023-04-21T03:38:00.136Z,98194.97
2023-04-21T03:40:30.001Z,98202.09
2023-04-21T03:43:00.214Z,98205.69
2023-04-21T03:45:28.314Z,98206.69
2023-04-21T03:47:56.995Z,98218.22
2023-04-21T03:50:25.088Z,98213.09
2023-04-21T03:52:53.111Z,98206.41
2023-04-21T03:55:21.102Z,98204.59
2023-04-21T03:57:49.150Z,98209.50
2023-04-21T04:00:18.646Z,98197.31
2023-04-21T04:02:46.787Z,98195.41
2023-04-21T04:05:17.137Z,98200.75
2023-04-21T04:07:46.138Z,98193.34
2023-04-21T04:10:14.280Z,98197.25
2023-04-21T04:12:42.333Z,98196.25
2023-04-21T04:15:10.453Z,98191.00
2023-04-21T04:17:39.824Z,98189.34
2023-04-21T04:20:08.481Z,98195.41
2023-04-21T04:22:37.226Z,98199.16
2023-04-21T04:25:05.588Z,98197.06
2023-04-21T04:27:34.346Z,98196.00
2023-04-21T04:30:03.239Z,98195.31
2023-04-21T04:32:31.392Z,98190.44
2023-04-21T04:35:00.818Z,98191.91
2023-04-21T04:37:28.917Z,98191.06
2023-04-21T04:39:57.076Z,98196.72
2023-04-21T04:42:25.871Z,98203.59
2023-04-21T04:44:54.214Z,98197.03
2023-04-21T04:47:22.274Z,98183.63
2023-04-21T04:49:52.834Z,98189.06
2023-04-21T04:52:22.355Z,98200.00
2023-04-21T04:54:50.365Z,98195.22
2023-04-21T04:57:18.476Z,98203.38
2023-04-21T04:59:46.520Z,98206.50
2023-04-21T05:02:14.711Z,98209.63
2023-04-21T05:04:45.386Z,98203.78
2023-04-21T05:07:13.570Z,98201.56
2023-04-21T05:09:43.080Z,98202.59
2023-04-21T05:12:11.265Z,98207.03
2023-04-21T05:14:41.361Z,98211.69
2023-04-21T05:17:09.467Z,98211.41
2023-04-21T05:19:38.215Z,98203.41
2023-04-21T05:22:07.506Z,98214.09
2023-04-21T05:24:35.972Z,98218.38
2023-04-21T05:27:05.421Z,98230.66
2023-04-21T05:29:34.293Z,98224.34
2023-04-21T05:32:02.447Z,98219.81
2023-04-21T05:34:30.533Z,98220.50
2023-04-21T05:36:58.596Z,98212.88
2023-04-21T05:39:28.270Z,98219.16
2023-04-21T05:41:58.800Z,98225.19
2023-04-21T05:44:28.414Z,98227.66
2023-04-21T05:46:56.447Z,98220.97
2023-04-21T05:49:24.564Z,98206.59
2023-04-21T05:51:52.664Z,98209.53
2023-04-21T05:54:20.809Z,98214.50
2023-04-21T05:56:49.587Z,98229.06
2023-04-21T05:59:17.969Z,98236.69
2023-04-21T06:01:47.346Z,98245.47
2023-04-21T06:04:15.740Z,98234.06
2023-04-21T06:06:44.330Z,98234.97
2023-04-21T06:09:15.644Z,98244.72
2023-04-21T06:11:43.740Z,98256.53
2023-04-21T06:14:11.808Z,98260.13
2023-04-21T06:16:39.988Z,98257.28
2023-04-21T06:19:12.326Z,98256.63
2023-04-21T06:21:40.359Z,98257.53
2023-04-21T06:24:09.148Z,98250.91
2023-04-21T06:26:40.784Z,98259.59
2023-04-21T06:29:10.185Z,98271.50
2023-04-21T06:31:38.285Z,98251.19
2023-04-21T06:34:06.449Z,98241.72
2023-04-21T06:36:35.878Z,98239.25
2023-04-21T06:39:04.752Z,98229.41
2023-04-21T06:41:32.762Z,98237.31
2023-04-21T06:44:00.821Z,98238.41
2023-04-21T06:46:28.890Z,98253.41
2023-04-21T06:48:57.181Z,98246.84
2023-04-21T06:51:25.325Z,98230.91
2023-04-21T06:53:54.740Z,98207.00
2023-04-21T06:56:22.788Z,98198.72
2023-04-21T06:58:50.836Z,98198.91
2023-04-21T07:01:19.010Z,98195.22
2023-04-21T07:03:47.424Z,98183.19
2023-04-21T07:06:15.528Z,98184.88
2023-04-21T07:08:43.826Z,98172.94
2023-04-21T07:11:13.258Z,98183.44
2023-04-21T07:13:41.269Z,98193.97
2023-04-21T07:16:09.383Z,98199.16
2023-04-21T07:18:37.473Z,98201.19
2023-04-21T07:21:05.463Z,98190.63
2023-04-21T07:23:33.666Z,98194.91
2023-04-21T07:26:01.698Z,98183.16
2023-04-21T07:28:31.174Z,98191.19
2023-04-21T07:31:00.955Z,98193.03
2023-04-21T07:33:31.116Z,98197.53
2023-04-21T07:35:59.264Z,98197.72
2023-04-21T07:38:27.358Z,98198.66
2023-04-21T07:40:55.489Z,98191.66
2023-04-21T07:43:23.625Z,98187.59
2023-04-21T07:45:53.209Z,98184.13
2023-04-21T07:48:21.701Z,98174.78
2023-04-21T07:50:50.379Z,98176.41
2023-04-21T07:53:18.438Z,98164.16
2023-04-21T07:55:46.454Z,98164.25
2023-04-21T07:58:14.447Z,98174.25
2023-04-21T08:00:42.493Z,98169.97
2023-04-21T08:03:11.910Z,98170.78
2023-04-21T08:05:41.579Z,98173.81
2023-04-21T08:08:10.576Z,98181.19
2023-04-21T08:10:38.706Z,98182.44
2023-04-21T08:13:09.112Z,98174.84
2023-04-21T08:15:37.153Z,98169.63
2023-04-21T08:18:05.315Z,98158.28
2023-04-21T08:20:34.907Z,98152.06
2023-04-21T08:23:05.648Z,98145.03
2023-04-21T08:25:34.009Z,98141.69
2023-04-21T08:28:02.080Z,98146.47
2023-04-21T08:30:30.208Z,98127.78
2023-04-21T08:32:58.292Z,98122.63
2023-04-21T08:35:26.416Z,98120.69
2023-04-21T08:37:55.798Z,98109.72
2023-04-21T08:40:29.627Z,98100.19
2023-04-21T08:42:59.286Z,98101.84
2023-04-21T08:45:28.529Z,98096.03
2023-04-21T08:47:57.011Z,98103.81
2023-04-21T08:50:27.751Z,98110.88
2023-04-21T08:52:57.123Z,98101.00
2023-04-21T08:55:26.379Z,98100.19
2023-04-21T08:57:56.729Z,98103.25
2023-04-21T09:00:24.881Z,98097.78
2023-04-21T09:03:00.745Z,98108.34
2023-04-21T09:05:30.836Z,98106.38
2023-04-21T09:08:10.036Z,98103.03
2023-04-21T09:10:44.498Z,98099.56
2023-04-21T09:13:12.636Z,98093.00
2023-04-21T09:15:41.613Z,98104.06
2023-04-21T09:18:14.517Z,98106.66
2023-04-21T09:20:43.659Z,98101.97
2023-04-21T09:23:13.152Z,98101.81
2023-04-21T09:25:41.847Z,98106.16
2023-04-21T09:28:10.467Z,98095.34
2023-04-21T09:30:38.862Z,98094.72
2023-04-21T09:33:20.075Z,98095.22
2023-04-21T09:35:53.530Z,98094.97
2023-04-21T09:38:25.607Z,98095.63
2023-04-21T09:40:57.756Z,98095.81
2023-04-21T09:43:26.075Z,98089.63
2023-04-21T09:45:54.646Z,98094.44
2023-04-21T09:48:23.166Z,98095.16
2023-04-21T09:51:24.938Z,98105.47
2023-04-21T09:53:42.095Z,98095.00
2023-04-21T09:56:12.424Z,98093.84
2023-04-21T09:58:42.145Z,98091.25
2023-04-21T10:01:10.707Z,98079.06
2023-04-21T10:03:40.255Z,98078.69
2023-04-21T10:08:37.760Z,98071.78
2023-04-21T10:11:07.899Z,98074.44
2023-04-21T10:13:36.721Z,98078.63
2023-04-21T10:16:05.660Z,98076.38
2023-04-21T10:18:35.812Z,98068.91
2023-04-21T10:21:05.103Z,98072.81
2023-04-21T10:23:35.982Z,98060.78
2023-04-21T10:26:05.220Z,98067.63
2023-04-21T10:28:44.981Z,98060.25
2023-04-21T10:31:18.490Z,98053.50
2023-04-21T10:34:01.393Z,98053.44
2023-04-21T10:36:31.913Z,98043.97
2023-04-21T10:39:02.693Z,98046.00
2023-04-21T10:41:31.646Z,98044.78
2023-04-21T10:44:12.361Z,98047.53
2023-04-21T10:46:41.236Z,98046.69
2023-04-21T10:49:09.941Z,98038.91
2023-04-21T10:51:55.915Z,98032.28
2023-04-21T10:54:25.747Z,98037.28
2023-04-21T10:56:54.229Z,98037.97
2023-04-21T10:59:23.809Z,63131.69
2023-04-21T11:01:52.282Z,63131.69
2023-04-21T11:04:21.837Z,63131.69
2023-04-21T11:07:06.190Z,63131.69
2023-04-21T11:09:34.421Z,63131.69
2023-04-21T11:12:04.426Z,63131.69
2023-04-21T11:14:37.210Z,63131.69
2023-04-21T11:17:05.834Z,63131.69
2023-04-21T11:19:33.958Z,63131.69
2023-04-21T11:22:02.060Z,63131.69
2023-04-21T11:24:30.132Z,63131.69
2023-04-21T11:27:02.015Z,63131.69
2023-04-21T11:29:30.246Z,63131.69
2023-04-21T11:32:00.175Z,63131.69
2023-04-21T11:34:30.863Z,63131.69
2023-04-21T11:36:58.929Z,63131.69
2023-04-21T11:39:29.359Z,63131.69
2023-04-21T11:41:57.615Z,63131.69
2023-04-21T11:44:32.629Z,63131.69
2023-04-21T11:47:02.168Z,63131.69
2023-04-21T11:49:30.507Z,63131.69
2023-04-21T11:51:58.609Z,63131.69
2023-04-21T11:54:26.618Z,63131.69
2023-04-21T11:56:55.386Z,63131.69
2023-04-21T11:59:25.792Z,63131.69
2023-04-21T12:01:55.135Z,63131.69
2023-04-21T12:04:25.188Z,63131.69
2023-04-21T12:06:57.620Z,63131.69
2023-04-21T12:09:26.022Z,63131.69
2023-04-21T12:11:55.000Z,63131.69
2023-04-21T12:14:24.244Z,63131.69
2023-04-21T12:16:55.754Z,63131.69
2023-04-21T12:19:26.473Z,63131.69
2023-04-21T12:21:55.501Z,63131.69
2023-04-21T12:24:23.615Z,63131.69
2023-04-21T12:26:54.585Z,63131.69
2023-04-21T12:29:22.701Z,63131.69
2023-04-21T12:31:50.970Z,63131.69
2023-04-21T12:34:19.044Z,63131.69
2023-04-21T12:36:50.866Z,63131.69
2023-04-21T12:39:21.966Z,63131.69
2023-04-21T12:41:49.947Z,63131.69
2023-04-21T12:44:17.971Z,63131.69
2023-04-21T12:46:46.028Z,63131.69
2023-04-21T12:49:14.482Z,63131.69
2023-04-21T12:51:43.208Z,63131.69
2023-04-21T12:54:15.496Z,63131.69
2023-04-21T12:56:43.721Z,63131.69
2023-04-21T12:59:12.016Z,63131.69
2023-04-21T13:01:42.611Z,63131.69
2023-04-21T13:04:11.230Z,63131.69
2023-04-21T13:06:39.669Z,63131.69
2023-04-21T13:09:07.734Z,63131.69
2023-04-21T13:11:37.086Z,63131.69
2023-04-21T13:14:05.168Z,63131.69
2023-04-21T13:16:33.323Z,63131.69
2023-04-21T13:19:01.480Z,63131.69
2023-04-21T13:21:29.562Z,63131.69
2023-04-21T13:24:00.001Z,63131.69
2023-04-21T13:26:28.195Z,63131.69
2023-04-21T13:28:57.563Z,63131.69
2023-04-21T13:31:26.382Z,63131.69
2023-04-21T13:33:54.477Z,63131.69
2023-04-21T13:36:23.056Z,63131.69
2023-04-21T13:38:53.791Z,63131.69
2023-04-21T13:41:21.825Z,63131.69
2023-04-21T13:43:50.101Z,63131.69
2023-04-21T13:46:19.616Z,63131.69
2023-04-21T13:48:47.803Z,63131.69
2023-04-21T13:51:15.856Z,63131.69
2023-04-21T13:53:43.988Z,63131.69
2023-04-21T13:56:13.736Z,63131.69
2023-04-21T13:58:41.966Z,63131.69
2023-04-21T14:01:10.002Z,63131.69
2023-04-21T14:03:39.640Z,63131.69
2023-04-21T14:06:08.097Z,63131.69
2023-04-21T14:08:36.624Z,63131.69
2023-04-21T14:11:05.044Z,63131.69
2023-04-21T14:13:38.168Z,63131.69
2023-04-21T14:16:10.225Z,63131.69
2023-04-21T14:18:44.461Z,63131.69
2023-04-21T14:21:12.581Z,63131.69
2023-04-21T14:23:40.581Z,63131.69
2023-04-21T14:26:08.756Z,63131.69
2023-04-21T14:28:37.250Z,63131.69
2023-04-21T14:31:05.510Z,63131.69
2023-04-21T14:33:33.845Z,63131.69
2023-04-21T14:36:03.637Z,63131.69
2023-04-21T14:38:31.796Z,63131.69
2023-04-21T14:40:59.871Z,63131.69
2023-04-21T14:43:28.062Z,63131.69
2023-04-21T14:45:56.340Z,63131.69
2023-04-21T14:48:24.467Z,63131.69
2023-04-21T14:50:54.674Z,63131.69
2023-04-21T14:53:26.842Z,63131.69
2023-04-21T14:55:55.016Z,63131.69
2023-04-21T14:58:23.034Z,63131.69
2023-04-21T15:00:51.285Z,63131.69
2023-04-21T15:03:21.775Z,63131.69
2023-04-21T15:05:50.092Z,63131.69
2023-04-21T15:08:18.355Z,63131.69
2023-04-21T15:10:48.023Z,63131.69
2023-04-21T15:13:16.290Z,63131.69
2023-04-21T15:15:44.383Z,63131.69
2023-04-21T15:18:12.409Z,63131.69
2023-04-21T15:20:45.350Z,63131.69
2023-04-21T15:23:14.068Z,63131.69
2023-04-21T15:25:42.422Z,63131.69
2023-04-21T15:28:13.033Z,63131.69
2023-04-21T15:30:41.107Z,63131.69
2023-04-21T15:33:09.286Z,63131.69
2023-04-21T15:35:37.379Z,63131.69
2023-04-21T15:38:05.991Z,63131.69
2023-04-21T15:40:34.065Z,63131.69
2023-04-21T15:43:03.211Z,63131.69
2023-04-21T15:45:32.717Z,63131.69
2023-04-21T15:48:03.200Z,63131.69
2023-04-21T15:50:33.817Z,63131.69
2023-04-21T15:53:04.660Z,63131.69
2023-04-21T15:55:32.781Z,63131.69
2023-04-21T15:58:00.875Z,63131.69
2023-04-21T16:00:32.729Z,63131.69
2023-04-21T16:03:00.920Z,63131.69
2023-04-21T16:05:29.536Z,63131.69
2023-04-21T16:07:57.770Z,63131.69
2023-04-21T16:10:25.874Z,63131.69
2023-04-21T16:12:56.195Z,63131.69
2023-04-21T16:15:25.281Z,63131.69
2023-04-21T16:17:55.261Z,63131.69
2023-04-21T16:20:23.393Z,63131.69
2023-04-21T16:22:51.891Z,63131.69
2023-04-21T16:25:20.261Z,63131.69
2023-04-21T16:27:50.762Z,63131.69
2023-04-21T16:30:18.835Z,63131.69
2023-04-21T16:32:46.939Z,63131.69
2023-04-21T16:35:16.720Z,63131.69
2023-04-21T16:37:44.983Z,63131.69
2023-04-21T16:40:13.994Z,63131.69
2023-04-21T16:42:42.221Z,63131.69
2023-04-21T16:45:10.585Z,63131.69
2023-04-21T16:47:41.560Z,63131.69
2023-04-21T16:50:10.782Z,63131.69
2023-04-21T16:52:40.448Z,63131.69
2023-04-21T16:55:09.204Z,63131.69
2023-04-21T16:57:37.308Z,63131.69
2023-04-21T17:00:07.092Z,63131.69
2023-04-21T17:02:35.487Z,63131.69
2023-04-21T17:05:04.065Z,63131.69
2023-04-21T17:07:35.230Z,63131.69
2023-04-21T17:10:04.875Z,63131.69
2023-04-21T17:12:32.920Z,63131.69
2023-04-21T17:15:00.934Z,63131.69
2023-04-21T17:17:34.369Z,63131.69
2023-04-21T17:20:03.596Z,63131.69
2023-04-21T17:22:31.654Z,63131.69
2023-04-21T17:24:59.787Z,63131.69
2023-04-21T17:27:29.779Z,63131.69
2023-04-21T17:29:57.945Z,63131.69
2023-04-21T17:32:26.342Z,63131.69
2023-04-21T17:34:54.482Z,63131.69
2023-04-21T17:37:22.526Z,63131.69
2023-04-21T17:39:50.665Z,63131.69
2023-04-21T17:42:18.883Z,63131.69
2023-04-21T17:44:48.490Z,63131.69
2023-04-21T17:47:16.693Z,63131.69
2023-04-21T17:49:44.763Z,63131.69
2023-04-21T17:52:14.806Z,63131.69
2023-04-21T17:54:47.278Z,63131.69
2023-04-21T17:57:15.363Z,63131.69
2023-04-21T17:59:43.429Z,63131.69
2023-04-21T18:02:13.135Z,63131.69
2023-04-21T18:04:41.806Z,63131.69
2023-04-21T18:07:10.181Z,63131.69
2023-04-21T18:09:38.271Z,63131.69
2023-04-21T18:12:06.458Z,63131.69
2023-04-21T18:14:34.922Z,63131.69
2023-04-21T18:17:05.993Z,63131.69
2023-04-21T18:19:35.416Z,63131.69
2023-04-21T18:22:03.558Z,63131.69
2023-04-21T18:24:31.582Z,63131.69
2023-04-21T18:27:02.024Z,63131.69
2023-04-21T18:29:30.055Z,63131.69
2023-04-21T18:31:58.379Z,63131.69
2023-04-21T18:34:26.601Z,63131.69
2023-04-21T18:36:56.175Z,63131.69
2023-04-21T18:39:24.339Z,63131.69
2023-04-21T18:42:01.460Z,63131.69
2023-04-21T18:44:30.032Z,63131.69
2023-04-21T18:46:58.371Z,63131.69
2023-04-21T18:49:26.579Z,63131.69
2023-04-21T18:51:56.389Z,63131.69
2023-04-21T18:54:24.429Z,63131.69
2023-04-21T18:56:55.147Z,63131.69
2023-04-21T18:59:23.720Z,63131.69
2023-04-21T19:01:52.275Z,63131.69
2023-04-21T19:04:20.521Z,63131.69
2023-04-21T19:06:49.453Z,63131.69
2023-04-21T19:09:19.365Z,63131.69
2023-04-21T19:11:50.066Z,63131.69
2023-04-21T19:14:18.147Z,63131.69
2023-04-21T19:16:47.484Z,63131.69
2023-04-21T19:19:19.477Z,63131.69
2023-04-21T19:21:47.535Z,63131.69
2023-04-21T19:24:15.996Z,63131.69
2023-04-21T19:26:45.451Z,63131.69
2023-04-21T19:29:15.004Z,63131.69
2023-04-21T19:31:43.231Z,63131.69
2023-04-21T19:34:11.385Z,63131.69
2023-04-21T19:36:42.684Z,63131.69
2023-04-21T19:39:10.989Z,63131.69
2023-04-21T19:41:39.072Z,63131.69
2023-04-21T19:44:08.467Z,63131.69
2023-04-21T19:46:36.631Z,63131.69
2023-04-21T19:49:04.775Z,63131.69
2023-04-21T19:51:32.883Z,63131.69
2023-04-21T19:54:10.826Z,63131.69
2023-04-21T19:56:40.762Z,63131.69
2023-04-21T19:59:10.297Z,63131.69
2023-04-21T20:01:38.799Z,63131.69
2023-04-21T20:04:12.029Z,63131.69
2023-04-21T20:06:46.815Z,63131.69
2023-04-21T20:09:14.842Z,63131.69
2023-04-21T20:11:42.838Z,63131.69
2023-04-21T20:14:14.611Z,63131.69
2023-04-21T20:16:45.557Z,63131.69
2023-04-21T20:19:15.056Z,63131.69
2023-04-21T20:21:43.876Z,63131.69
2023-04-21T20:24:12.447Z,63131.69
2023-04-21T20:26:40.649Z,63131.69
2023-04-21T20:29:10.784Z,63131.69
2023-04-21T20:31:40.260Z,63131.69
2023-04-21T20:34:08.345Z,63131.69
2023-04-21T20:36:37.077Z,63131.69
2023-04-21T20:39:06.572Z,63131.69
2023-04-21T20:41:34.806Z,63131.69
2023-04-21T20:44:03.359Z,63131.69
2023-04-21T20:46:31.486Z,63131.69
2023-04-21T20:49:01.025Z,63131.69
2023-04-21T20:51:29.273Z,63131.69
2023-04-21T20:53:57.404Z,63131.69
2023-04-21T20:56:25.683Z,63131.69
2023-04-21T20:58:54.370Z,63131.69
2023-04-21T21:01:23.601Z,63131.69
2023-04-21T21:03:52.215Z,63131.69
2023-04-21T21:06:22.421Z,63131.69
2023-04-21T21:08:50.540Z,63131.69
2023-04-21T21:11:21.684Z,63131.69
2023-04-21T21:13:50.396Z,63131.69
2023-04-21T21:16:20.805Z,63131.69
2023-04-21T21:18:48.994Z,63131.69
2023-04-21T21:21:17.024Z,63131.69
2023-04-21T21:23:46.408Z,63131.69
2023-04-21T21:26:14.473Z,63131.69
2023-04-21T21:28:42.429Z,63131.69
2023-04-21T21:31:10.506Z,63131.69
2023-04-21T21:33:38.626Z,63131.69
2023-04-21T21:36:07.161Z,63131.69
2023-04-21T21:38:35.166Z,63131.69
2023-04-21T21:41:04.962Z,63131.69
2023-04-21T21:43:33.685Z,63131.69
2023-04-21T21:46:05.550Z,63131.69
2023-04-21T21:48:33.661Z,63131.69
2023-04-21T21:51:01.809Z,63131.69
2023-04-21T21:53:29.821Z,63131.69
2023-04-21T21:55:57.898Z,63131.69
2023-04-21T21:58:27.430Z,63131.69
2023-04-21T22:02:36.768Z,97941.94
2023-04-21T22:05:05.797Z,97934.56
2023-04-21T22:07:35.340Z,97938.00
2023-04-21T22:10:06.249Z,97909.69
2023-04-21T22:12:34.353Z,97932.34
2023-04-21T22:15:04.954Z,97932.34
2023-04-21T22:17:34.630Z,97935.59
2023-04-21T22:20:04.907Z,97945.13
2023-04-21T22:22:32.973Z,97960.50
2023-04-21T22:25:01.079Z,97968.00
2023-04-21T22:27:29.860Z,97971.44
2023-04-21T22:30:00.482Z,97977.81
2023-04-21T22:32:32.175Z,97986.88
2023-04-21T22:35:00.439Z,97988.06
2023-04-21T22:37:29.830Z,97997.69
2023-04-21T22:39:57.969Z,97985.22
2023-04-21T22:42:26.026Z,97993.72
2023-04-21T22:44:54.065Z,97990.09
2023-04-21T22:47:22.747Z,97995.34
2023-04-21T22:49:51.399Z,97997.00
2023-04-21T22:52:19.432Z,98004.69
2023-04-21T22:54:48.805Z,97995.13
2023-04-21T22:57:16.833Z,97997.56
2023-04-21T22:59:44.911Z,97993.03
2023-04-21T23:02:13.740Z,97990.53
2023-04-21T23:04:41.783Z,97989.06
2023-04-21T23:07:09.863Z,97983.81
2023-04-21T23:09:38.232Z,97971.81
2023-04-21T23:12:08.168Z,97975.84
2023-04-21T23:14:36.237Z,97966.25
2023-04-21T23:17:04.283Z,97965.16
2023-04-21T23:19:32.322Z,97969.81
2023-04-21T23:22:00.394Z,97975.16
2023-04-21T23:24:28.508Z,97975.97
2023-04-21T23:26:56.586Z,97981.34
2023-04-21T23:29:26.165Z,97989.97
2023-04-21T23:31:54.253Z,97983.50
2023-04-21T23:34:22.353Z,97975.03
2023-04-21T23:36:50.355Z,97970.22
2023-04-21T23:39:21.356Z,97979.38
2023-04-21T23:41:49.641Z,97986.97
2023-04-21T23:44:17.660Z,97982.38
2023-04-21T23:46:47.145Z,97983.59
2023-04-21T23:49:15.220Z,97984.66
2023-04-21T23:51:45.974Z,97976.31
2023-04-21T23:54:14.114Z,97975.56
2023-04-21T23:56:42.208Z,97959.28
2023-04-21T23:59:10.298Z,97963.34
